sensor_id;sensor_type;location;lat;lon;timestamp;pressure;altitude;pressure_sealevel;temperature;humidity
80624;BME280;69981;44.768;9.600;2023-05-10T00:01:42;96976.00;;;13.80;92.57
80624;BME280;69981;44.768;9.600;2023-05-10T00:04:08;96967.84;;;13.80;92.26
80624;BME280;69981;44.768;9.600;2023-05-10T00:06:33;96970.50;;;13.74;92.45
80624;BME280;69981;44.768;9.600;2023-05-10T00:08:59;96966.88;;;13.69;92.61
80624;BME280;69981;44.768;9.600;2023-05-10T00:11:25;96965.97;;;13.63;92.44
80624;BME280;69981;44.768;9.600;2023-05-10T00:13:50;96968.66;;;13.63;92.20
80624;BME280;69981;44.768;9.600;2023-05-10T00:16:16;96960.75;;;13.62;92.59
80624;BME280;69981;44.768;9.600;2023-05-10T00:18:41;96961.59;;;13.62;92.74
80624;BME280;69981;44.768;9.600;2023-05-10T00:21:07;96951.22;;;13.59;93.02
80624;BME280;69981;44.768;9.600;2023-05-10T00:23:32;96950.38;;;13.59;92.74
80624;BME280;69981;44.768;9.600;2023-05-10T00:25:58;96948.59;;;13.64;92.34
80624;BME280;69981;44.768;9.600;2023-05-10T00:28:23;96948.09;;;13.67;91.96
80624;BME280;69981;44.768;9.600;2023-05-10T00:30:49;96940.63;;;13.74;91.79
80624;BME280;69981;44.768;9.600;2023-05-10T00:33:14;96936.44;;;13.67;92.66
80624;BME280;69981;44.768;9.600;2023-05-10T00:35:41;96933.94;;;13.65;92.75
80624;BME280;69981;44.768;9.600;2023-05-10T00:38:06;96931.81;;;13.67;92.63
80624;BME280;69981;44.768;9.600;2023-05-10T00:40:32;96932.66;;;13.68;92.55
80624;BME280;69981;44.768;9.600;2023-05-10T00:43:02;96932.28;;;13.64;92.73
80624;BME280;69981;44.768;9.600;2023-05-10T00:45:30;96931.00;;;13.67;92.33
80624;BME280;69981;44.768;9.600;2023-05-10T00:47:56;96934.47;;;13.96;90.40
80624;BME280;69981;44.768;9.600;2023-05-10T00:50:22;96926.41;;;13.84;91.18
80624;BME280;69981;44.768;9.600;2023-05-10T00:52:49;96932.66;;;13.85;90.75
80624;BME280;69981;44.768;9.600;2023-05-10T00:55:15;96930.13;;;13.95;90.30
80624;BME280;69981;44.768;9.600;2023-05-10T00:57:41;96924.34;;;13.74;90.72
80624;BME280;69981;44.768;9.600;2023-05-10T01:00:07;96921.78;;;13.68;91.17
80624;BME280;69981;44.768;9.600;2023-05-10T01:02:34;96916.69;;;13.71;91.23
80624;BME280;69981;44.768;9.600;2023-05-10T01:05:02;96920.88;;;13.96;89.90
80624;BME280;69981;44.768;9.600;2023-05-10T01:07:29;96912.75;;;13.96;89.33
80624;BME280;69981;44.768;9.600;2023-05-10T01:09:54;96915.38;;;13.91;89.81
80624;BME280;69981;44.768;9.600;2023-05-10T01:12:20;96913.31;;;13.98;88.90
80624;BME280;69981;44.768;9.600;2023-05-10T01:14:48;96900.00;;;13.80;89.89
80624;BME280;69981;44.768;9.600;2023-05-10T01:17:14;96898.66;;;13.65;90.30
80624;BME280;69981;44.768;9.600;2023-05-10T01:19:40;96902.19;;;13.49;91.14
80624;BME280;69981;44.768;9.600;2023-05-10T01:36:06;96898.44;;;13.50;89.89
80624;BME280;69981;44.768;9.600;2023-05-10T01:38:48;96891.00;;;13.46;89.07
80624;BME280;69981;44.768;9.600;2023-05-10T01:41:27;96902.03;;;13.39;89.42
80624;BME280;69981;44.768;9.600;2023-05-10T01:46:48;96894.91;;;13.21;89.76
80624;BME280;69981;44.768;9.600;2023-05-10T01:49:30;96900.00;;;13.18;90.44
80624;BME280;69981;44.768;9.600;2023-05-10T01:52:00;96900.13;;;13.11;90.29
80624;BME280;69981;44.768;9.600;2023-05-10T01:54:29;96906.19;;;13.02;90.32
80624;BME280;69981;44.768;9.600;2023-05-10T01:57:00;96900.25;;;13.05;90.68
80624;BME280;69981;44.768;9.600;2023-05-10T01:59:30;96895.22;;;12.96;90.79
80624;BME280;69981;44.768;9.600;2023-05-10T02:02:02;96894.56;;;12.89;90.77
80624;BME280;69981;44.768;9.600;2023-05-10T02:04:30;96906.47;;;12.88;90.74
80624;BME280;69981;44.768;9.600;2023-05-10T02:06:57;96908.34;;;12.88;90.77
80624;BME280;69981;44.768;9.600;2023-05-10T02:09:25;96896.53;;;12.94;90.48
80624;BME280;69981;44.768;9.600;2023-05-10T02:11:53;96898.88;;;12.90;90.23
80624;BME280;69981;44.768;9.600;2023-05-10T02:14:20;96896.44;;;12.89;90.00
80624;BME280;69981;44.768;9.600;2023-05-10T02:16:48;96895.53;;;12.83;91.17
80624;BME280;69981;44.768;9.600;2023-05-10T02:19:16;96893.81;;;12.94;90.55
80624;BME280;69981;44.768;9.600;2023-05-10T02:21:45;96886.75;;;12.93;89.99
80624;BME280;69981;44.768;9.600;2023-05-10T02:24:11;96887.06;;;12.96;89.94
80624;BME280;69981;44.768;9.600;2023-05-10T02:26:38;96889.59;;;12.86;90.21
80624;BME280;69981;44.768;9.600;2023-05-10T02:29:04;96879.06;;;12.62;91.31
80624;BME280;69981;44.768;9.600;2023-05-10T02:31:33;96884.34;;;12.68;91.15
80624;BME280;69981;44.768;9.600;2023-05-10T02:33:59;96879.91;;;12.90;90.12
80624;BME280;69981;44.768;9.600;2023-05-10T02:36:27;96876.31;;;12.73;90.19
80624;BME280;69981;44.768;9.600;2023-05-10T02:38:53;96878.50;;;12.48;91.31
80624;BME280;69981;44.768;9.600;2023-05-10T02:41:22;96874.13;;;12.70;90.09
80624;BME280;69981;44.768;9.600;2023-05-10T02:43:52;96879.56;;;12.59;89.87
80624;BME280;69981;44.768;9.600;2023-05-10T02:46:21;96871.56;;;12.52;90.28
80624;BME280;69981;44.768;9.600;2023-05-10T02:48:46;96878.31;;;12.38;90.91
80624;BME280;69981;44.768;9.600;2023-05-10T02:51:14;96868.06;;;12.40;91.27
80624;BME280;69981;44.768;9.600;2023-05-10T02:53:44;96863.81;;;12.44;90.80
80624;BME280;69981;44.768;9.600;2023-05-10T02:56:15;96863.56;;;12.45;90.77
80624;BME280;69981;44.768;9.600;2023-05-10T02:58:42;96869.47;;;12.42;91.04
80624;BME280;69981;44.768;9.600;2023-05-10T03:01:08;96868.06;;;12.40;90.62
80624;BME280;69981;44.768;9.600;2023-05-10T03:03:34;96862.28;;;12.36;90.64
80624;BME280;69981;44.768;9.600;2023-05-10T03:06:00;96862.66;;;12.40;90.88
80624;BME280;69981;44.768;9.600;2023-05-10T03:08:25;96864.16;;;12.36;90.63
80624;BME280;69981;44.768;9.600;2023-05-10T03:13:43;96854.88;;;12.32;89.86
80624;BME280;69981;44.768;9.600;2023-05-10T03:16:15;96862.81;;;12.22;90.40
80624;BME280;69981;44.768;9.600;2023-05-10T03:18:48;96864.53;;;12.16;90.94
80624;BME280;69981;44.768;9.600;2023-05-10T03:21:17;96860.44;;;12.13;90.30
80624;BME280;69981;44.768;9.600;2023-05-10T03:24:15;96856.81;;;12.08;90.52
80624;BME280;69981;44.768;9.600;2023-05-10T03:26:43;96861.84;;;12.04;90.60
80624;BME280;69981;44.768;9.600;2023-05-10T03:29:15;96855.97;;;12.07;90.79
80624;BME280;69981;44.768;9.600;2023-05-10T03:31:41;96856.09;;;12.12;91.14
80624;BME280;69981;44.768;9.600;2023-05-10T03:34:07;96861.84;;;12.04;90.11
80624;BME280;69981;44.768;9.600;2023-05-10T03:36:32;96862.56;;;12.11;90.00
80624;BME280;69981;44.768;9.600;2023-05-10T03:38:58;96857.16;;;12.11;89.39
80624;BME280;69981;44.768;9.600;2023-05-10T03:41:25;96851.72;;;12.11;89.35
80624;BME280;69981;44.768;9.600;2023-05-10T03:43:51;96865.97;;;12.07;89.33
80624;BME280;69981;44.768;9.600;2023-05-10T03:46:16;96856.94;;;12.01;89.13
80624;BME280;69981;44.768;9.600;2023-05-10T03:48:42;96853.03;;;12.09;89.21
80624;BME280;69981;44.768;9.600;2023-05-10T03:51:08;96855.50;;;12.10;89.29
80624;BME280;69981;44.768;9.600;2023-05-10T03:53:33;96856.22;;;12.06;89.44
80624;BME280;69981;44.768;9.600;2023-05-10T03:55:59;96855.41;;;11.94;90.94
80624;BME280;69981;44.768;9.600;2023-05-10T03:58:25;96860.47;;;11.90;92.15
80624;BME280;69981;44.768;9.600;2023-05-10T04:00:51;96858.59;;;11.91;91.33
80624;BME280;69981;44.768;9.600;2023-05-10T04:03:17;96857.50;;;12.15;87.91
80624;BME280;69981;44.768;9.600;2023-05-10T04:05:42;96862.56;;;12.11;89.81
80624;BME280;69981;44.768;9.600;2023-05-10T04:08:08;96856.91;;;12.25;88.46
80624;BME280;69981;44.768;9.600;2023-05-10T04:10:34;96859.13;;;12.16;89.66
80624;BME280;69981;44.768;9.600;2023-05-10T04:12:59;96861.50;;;12.12;88.71
80624;BME280;69981;44.768;9.600;2023-05-10T04:15:25;96855.38;;;12.17;88.85
80624;BME280;69981;44.768;9.600;2023-05-10T04:17:50;96861.59;;;12.29;87.77
80624;BME280;69981;44.768;9.600;2023-05-10T04:20:16;96860.66;;;12.24;88.30
80624;BME280;69981;44.768;9.600;2023-05-10T04:22:42;96858.31;;;12.27;88.54
80624;BME280;69981;44.768;9.600;2023-05-10T04:25:08;96863.88;;;12.09;89.18
80624;BME280;69981;44.768;9.600;2023-05-10T04:27:34;96859.63;;;12.13;88.92
80624;BME280;69981;44.768;9.600;2023-05-10T04:29:59;96866.31;;;12.10;90.18
80624;BME280;69981;44.768;9.600;2023-05-10T04:32:25;96868.47;;;12.08;88.65
80624;BME280;69981;44.768;9.600;2023-05-10T04:34:50;96869.41;;;12.14;88.08
80624;BME280;69981;44.768;9.600;2023-05-10T04:37:17;96880.94;;;12.09;89.21
80624;BME280;69981;44.768;9.600;2023-05-10T04:39:43;96876.00;;;12.06;89.35
80624;BME280;69981;44.768;9.600;2023-05-10T04:42:09;96872.81;;;12.09;88.71
80624;BME280;69981;44.768;9.600;2023-05-10T04:44:34;96879.28;;;12.08;88.60
80624;BME280;69981;44.768;9.600;2023-05-10T04:47:00;96877.28;;;12.15;88.89
80624;BME280;69981;44.768;9.600;2023-05-10T04:49:28;96878.69;;;12.18;88.53
80624;BME280;69981;44.768;9.600;2023-05-10T04:51:53;96873.06;;;12.08;87.17
80624;BME280;69981;44.768;9.600;2023-05-10T04:54:19;96876.69;;;12.13;87.34
80624;BME280;69981;44.768;9.600;2023-05-10T04:56:44;96870.34;;;11.96;87.33
80624;BME280;69981;44.768;9.600;2023-05-10T04:59:10;96877.03;;;11.94;88.22
80624;BME280;69981;44.768;9.600;2023-05-10T05:01:35;96877.38;;;11.97;88.46
80624;BME280;69981;44.768;9.600;2023-05-10T05:04:01;96875.03;;;12.12;88.59
80624;BME280;69981;44.768;9.600;2023-05-10T05:06:27;96877.28;;;11.92;88.42
80624;BME280;69981;44.768;9.600;2023-05-10T05:08:52;96881.97;;;11.85;89.68
80624;BME280;69981;44.768;9.600;2023-05-10T05:11:18;96877.16;;;11.75;89.97
80624;BME280;69981;44.768;9.600;2023-05-10T05:13:43;96890.91;;;11.74;90.25
80624;BME280;69981;44.768;9.600;2023-05-10T05:16:09;96883.41;;;11.76;90.12
80624;BME280;69981;44.768;9.600;2023-05-10T05:18:36;96881.47;;;11.65;90.40
80624;BME280;69981;44.768;9.600;2023-05-10T05:21:02;96881.69;;;11.52;90.79
80624;BME280;69981;44.768;9.600;2023-05-10T05:23:27;96883.91;;;11.43;91.46
80624;BME280;69981;44.768;9.600;2023-05-10T05:25:53;96894.03;;;11.48;90.83
80624;BME280;69981;44.768;9.600;2023-05-10T05:28:20;96893.44;;;11.46;91.62
80624;BME280;69981;44.768;9.600;2023-05-10T05:30:46;96898.25;;;11.44;91.41
80624;BME280;69981;44.768;9.600;2023-05-10T05:33:15;96904.56;;;11.38;91.57
80624;BME280;69981;44.768;9.600;2023-05-10T05:35:41;96911.88;;;11.37;91.75
80624;BME280;69981;44.768;9.600;2023-05-10T05:38:08;96914.00;;;11.35;91.78
80624;BME280;69981;44.768;9.600;2023-05-10T05:40:33;96914.00;;;11.35;91.96
80624;BME280;69981;44.768;9.600;2023-05-10T05:42:59;96911.88;;;11.37;91.59
80624;BME280;69981;44.768;9.600;2023-05-10T05:45:24;96920.34;;;11.41;91.79
80624;BME280;69981;44.768;9.600;2023-05-10T05:47:51;96922.34;;;11.45;91.72
80624;BME280;69981;44.768;9.600;2023-05-10T05:50:16;96926.53;;;11.29;91.51
80624;BME280;69981;44.768;9.600;2023-05-10T05:52:42;96925.97;;;11.27;91.46
80624;BME280;69981;44.768;9.600;2023-05-10T05:55:07;96931.81;;;11.24;91.69
80624;BME280;69981;44.768;9.600;2023-05-10T05:57:33;96934.16;;;11.21;91.82
80624;BME280;69981;44.768;9.600;2023-05-10T05:59:59;96939.91;;;11.24;90.77
80624;BME280;69981;44.768;9.600;2023-05-10T06:02:24;96932.97;;;11.17;90.91
80624;BME280;69981;44.768;9.600;2023-05-10T06:04:50;96945.28;;;11.13;91.66
80624;BME280;69981;44.768;9.600;2023-05-10T06:07:15;96946.31;;;11.12;91.92
80624;BME280;69981;44.768;9.600;2023-05-10T06:09:41;96951.50;;;11.13;91.62
80624;BME280;69981;44.768;9.600;2023-05-10T06:12:07;96949.41;;;11.15;90.48
80624;BME280;69981;44.768;9.600;2023-05-10T06:14:32;96954.22;;;11.13;90.84
80624;BME280;69981;44.768;9.600;2023-05-10T06:16:58;96949.41;;;11.15;90.85
80624;BME280;69981;44.768;9.600;2023-05-10T06:19:24;96951.28;;;11.15;91.34
80624;BME280;69981;44.768;9.600;2023-05-10T06:21:51;96957.56;;;11.27;91.28
80624;BME280;69981;44.768;9.600;2023-05-10T06:24:17;96955.81;;;11.32;89.49
80624;BME280;69981;44.768;9.600;2023-05-10T06:26:42;96955.69;;;11.27;89.08
80624;BME280;69981;44.768;9.600;2023-05-10T06:29:08;96959.75;;;11.18;90.57
80624;BME280;69981;44.768;9.600;2023-05-10T06:31:33;96968.13;;;11.17;89.76
80624;BME280;69981;44.768;9.600;2023-05-10T06:33:59;96968.78;;;11.12;89.48
80624;BME280;69981;44.768;9.600;2023-05-10T06:36:25;96974.19;;;11.12;89.75
80624;BME280;69981;44.768;9.600;2023-05-10T06:38:51;96970.38;;;11.02;90.61
80624;BME280;69981;44.768;9.600;2023-05-10T06:41:17;96984.94;;;11.01;90.91
80624;BME280;69981;44.768;9.600;2023-05-10T06:43:42;96982.09;;;10.95;91.00
80624;BME280;69981;44.768;9.600;2023-05-10T06:46:08;96984.88;;;10.89;91.27
80624;BME280;69981;44.768;9.600;2023-05-10T06:48:34;96990.91;;;10.91;91.56
80624;BME280;69981;44.768;9.600;2023-05-10T06:51:00;96997.34;;;10.90;91.71
80624;BME280;69981;44.768;9.600;2023-05-10T06:53:25;97002.13;;;10.88;92.14
80624;BME280;69981;44.768;9.600;2023-05-10T06:55:51;97013.63;;;10.65;92.84
80624;BME280;69981;44.768;9.600;2023-05-10T06:58:17;97011.59;;;10.61;94.00
80624;BME280;69981;44.768;9.600;2023-05-10T07:00:42;97019.28;;;10.39;93.07
80624;BME280;69981;44.768;9.600;2023-05-10T07:16:30;97055.66;;;9.80;93.75
80624;BME280;69981;44.768;9.600;2023-05-10T07:18:56;97065.47;;;9.68;93.80
80624;BME280;69981;44.768;9.600;2023-05-10T07:21:21;97068.91;;;9.50;94.71
80624;BME280;69981;44.768;9.600;2023-05-10T07:23:49;97075.16;;;9.44;93.87
80624;BME280;69981;44.768;9.600;2023-05-10T07:26:15;97085.38;;;9.29;94.01
80624;BME280;69981;44.768;9.600;2023-05-10T07:28:41;97080.41;;;9.26;94.20
80624;BME280;69981;44.768;9.600;2023-05-10T07:31:07;97076.25;;;9.30;94.04
80624;BME280;69981;44.768;9.600;2023-05-10T07:33:33;97087.25;;;9.28;94.31
80624;BME280;69981;44.768;9.600;2023-05-10T07:35:58;97100.09;;;9.26;94.54
80624;BME280;69981;44.768;9.600;2023-05-10T07:38:24;97108.41;;;9.25;94.65
80624;BME280;69981;44.768;9.600;2023-05-10T07:40:49;97103.44;;;9.22;94.53
80624;BME280;69981;44.768;9.600;2023-05-10T07:43:15;97115.06;;;9.16;95.10
80624;BME280;69981;44.768;9.600;2023-05-10T07:45:42;97109.63;;;9.29;94.58
80624;BME280;69981;44.768;9.600;2023-05-10T07:48:08;97112.16;;;9.17;94.51
80624;BME280;69981;44.768;9.600;2023-05-10T07:50:33;97112.19;;;9.11;94.90
80624;BME280;69981;44.768;9.600;2023-05-10T07:52:59;97121.31;;;9.10;94.69
80624;BME280;69981;44.768;9.600;2023-05-10T07:55:24;97115.47;;;9.19;93.91
80624;BME280;69981;44.768;9.600;2023-05-10T07:57:50;97121.09;;;9.05;94.02
80624;BME280;69981;44.768;9.600;2023-05-10T08:00:19;97125.03;;;9.02;94.12
80624;BME280;69981;44.768;9.600;2023-05-10T08:02:46;97122.97;;;9.04;95.21
80624;BME280;69981;44.768;9.600;2023-05-10T08:05:11;97125.44;;;9.12;94.15
80624;BME280;69981;44.768;9.600;2023-05-10T08:07:37;97125.78;;;9.36;94.08
80624;BME280;69981;44.768;9.600;2023-05-10T08:10:03;97121.66;;;9.26;93.14
80624;BME280;69981;44.768;9.600;2023-05-10T08:12:28;97116.69;;;9.30;93.33
80624;BME280;69981;44.768;9.600;2023-05-10T08:14:54;97103.75;;;9.45;93.50
80624;BME280;69981;44.768;9.600;2023-05-10T08:17:19;97100.63;;;9.48;94.55
80624;BME280;69981;44.768;9.600;2023-05-10T08:19:45;97097.09;;;9.48;94.53
80624;BME280;69981;44.768;9.600;2023-05-10T08:22:10;97098.22;;;9.71;93.94
80624;BME280;69981;44.768;9.600;2023-05-10T08:24:36;97096.06;;;9.87;92.39
80624;BME280;69981;44.768;9.600;2023-05-10T08:27:07;97103.06;;;9.94;92.40
80624;BME280;69981;44.768;9.600;2023-05-10T08:29:33;97106.75;;;10.00;92.89
80624;BME280;69981;44.768;9.600;2023-05-10T08:31:59;97098.56;;;9.82;91.00
80624;BME280;69981;44.768;9.600;2023-05-10T08:34:26;97093.53;;;9.92;90.93
80624;BME280;69981;44.768;9.600;2023-05-10T08:36:52;97108.78;;;9.80;90.89
80624;BME280;69981;44.768;9.600;2023-05-10T08:39:18;97104.88;;;9.69;89.73
80624;BME280;69981;44.768;9.600;2023-05-10T08:41:44;97109.44;;;9.75;90.56
80624;BME280;69981;44.768;9.600;2023-05-10T08:44:10;97111.88;;;9.77;91.10
80624;BME280;69981;44.768;9.600;2023-05-10T08:46:36;97118.31;;;9.75;89.89
80624;BME280;69981;44.768;9.600;2023-05-10T08:49:06;97122.13;;;9.68;91.39
80624;BME280;69981;44.768;9.600;2023-05-10T08:51:36;97131.91;;;9.62;92.15
80624;BME280;69981;44.768;9.600;2023-05-10T08:54:05;97131.09;;;9.55;91.65
80624;BME280;69981;44.768;9.600;2023-05-10T08:56:31;97133.16;;;9.53;91.74
80624;BME280;69981;44.768;9.600;2023-05-10T08:58:57;97140.22;;;9.54;92.13
80624;BME280;69981;44.768;9.600;2023-05-10T09:01:23;97143.56;;;9.50;90.83
80624;BME280;69981;44.768;9.600;2023-05-10T09:03:50;97140.06;;;9.43;91.10
80624;BME280;69981;44.768;9.600;2023-05-10T09:06:18;97166.22;;;9.29;92.69
80624;BME280;69981;44.768;9.600;2023-05-10T09:08:44;97166.84;;;9.38;93.02
80624;BME280;69981;44.768;9.600;2023-05-10T09:11:11;97170.78;;;9.28;92.09
80624;BME280;69981;44.768;9.600;2023-05-10T09:13:38;97171.19;;;9.32;92.29
80624;BME280;69981;44.768;9.600;2023-05-10T09:16:04;97172.41;;;9.43;92.53
80624;BME280;69981;44.768;9.600;2023-05-10T09:18:30;97170.56;;;9.37;90.94
80624;BME280;69981;44.768;9.600;2023-05-10T09:20:56;97158.09;;;9.49;91.72
80624;BME280;69981;44.768;9.600;2023-05-10T09:23:21;97153.94;;;9.40;91.86
80624;BME280;69981;44.768;9.600;2023-05-10T09:25:47;97140.72;;;9.76;91.91
80624;BME280;69981;44.768;9.600;2023-05-10T09:28:12;97142.34;;;9.84;92.40
80624;BME280;69981;44.768;9.600;2023-05-10T09:30:38;97131.47;;;10.35;88.91
80624;BME280;69981;44.768;9.600;2023-05-10T09:33:04;97130.59;;;10.41;86.29
80624;BME280;69981;44.768;9.600;2023-05-10T09:35:31;97132.50;;;10.34;86.41
80624;BME280;69981;44.768;9.600;2023-05-10T09:38:01;97130.63;;;10.34;89.27
80624;BME280;69981;44.768;9.600;2023-05-10T09:40:28;97135.38;;;10.64;87.01
80624;BME280;69981;44.768;9.600;2023-05-10T09:43:07;97143.94;;;10.61;88.89
80624;BME280;69981;44.768;9.600;2023-05-10T09:45:35;97166.22;;;10.49;87.72
80624;BME280;69981;44.768;9.600;2023-05-10T09:48:02;97159.59;;;10.21;89.89
80624;BME280;69981;44.768;9.600;2023-05-10T09:50:28;97159.38;;;10.22;89.92
80624;BME280;69981;44.768;9.600;2023-05-10T09:53:02;97150.63;;;10.27;87.71
80624;BME280;69981;44.768;9.600;2023-05-10T09:55:40;97151.28;;;10.15;89.76
80624;BME280;69981;44.768;9.600;2023-05-10T09:58:06;97155.03;;;10.14;89.44
80624;BME280;69981;44.768;9.600;2023-05-10T10:00:40;97125.78;;;10.18;89.88
80624;BME280;69981;44.768;9.600;2023-05-10T10:03:12;97104.69;;;10.33;87.85
80624;BME280;69981;44.768;9.600;2023-05-10T10:05:40;97103.09;;;10.50;88.91
80624;BME280;69981;44.768;9.600;2023-05-10T10:08:06;97093.66;;;10.60;88.66
80624;BME280;69981;44.768;9.600;2023-05-10T10:10:33;97082.66;;;10.61;89.96
80624;BME280;69981;44.768;9.600;2023-05-10T10:12:59;97077.50;;;10.78;91.52
80624;BME280;69981;44.768;9.600;2023-05-10T10:15:25;97075.31;;;10.86;91.71
80624;BME280;69981;44.768;9.600;2023-05-10T10:17:52;97057.97;;;11.12;88.88
80624;BME280;69981;44.768;9.600;2023-05-10T10:20:19;97051.38;;;11.08;88.66
80624;BME280;69981;44.768;9.600;2023-05-10T10:22:46;97047.91;;;11.19;87.21
80624;BME280;69981;44.768;9.600;2023-05-10T10:25:15;97031.09;;;11.17;84.91
80624;BME280;69981;44.768;9.600;2023-05-10T10:27:58;97016.66;;;11.23;82.41
80624;BME280;69981;44.768;9.600;2023-05-10T10:30:35;97019.53;;;11.28;85.63
80624;BME280;69981;44.768;9.600;2023-05-10T10:35:30;97016.78;;;11.47;86.40
80624;BME280;69981;44.768;9.600;2023-05-10T10:37:57;97011.88;;;11.55;84.88
80624;BME280;69981;44.768;9.600;2023-05-10T10:40:26;97022.34;;;11.82;88.04
80624;BME280;69981;44.768;9.600;2023-05-10T10:42:52;97023.06;;;11.89;84.07
80624;BME280;69981;44.768;9.600;2023-05-10T10:45:19;97041.31;;;11.63;86.00
80624;BME280;69981;44.768;9.600;2023-05-10T10:47:45;97059.00;;;11.29;86.48
80624;BME280;69981;44.768;9.600;2023-05-10T10:50:11;97061.41;;;11.38;86.37
80624;BME280;69981;44.768;9.600;2023-05-10T10:52:45;97072.38;;;11.43;87.06
80624;BME280;69981;44.768;9.600;2023-05-10T10:55:13;97076.38;;;11.40;85.95
80624;BME280;69981;44.768;9.600;2023-05-10T10:57:57;97071.00;;;11.52;84.80
80624;BME280;69981;44.768;9.600;2023-05-10T11:02:58;97063.56;;;11.95;84.99
80624;BME280;69981;44.768;9.600;2023-05-10T11:08:16;97044.81;;;12.70;80.41
80624;BME280;69981;44.768;9.600;2023-05-10T11:13:46;97025.22;;;12.91;78.75
80624;BME280;69981;44.768;9.600;2023-05-10T11:16:21;97029.97;;;12.96;78.50
80624;BME280;69981;44.768;9.600;2023-05-10T11:19:05;97033.50;;;12.73;79.67
80624;BME280;69981;44.768;9.600;2023-05-10T11:21:33;97027.59;;;13.00;81.58
80624;BME280;69981;44.768;9.600;2023-05-10T11:24:00;97029.31;;;13.29;81.80
80624;BME280;69981;44.768;9.600;2023-05-10T11:26:31;97030.44;;;13.45;78.73
80624;BME280;69981;44.768;9.600;2023-05-10T11:28:57;97035.91;;;13.33;77.20
80624;BME280;69981;44.768;9.600;2023-05-10T11:31:26;97045.16;;;13.20;81.46
80624;BME280;69981;44.768;9.600;2023-05-10T11:33:54;97031.41;;;13.27;79.57
80624;BME280;69981;44.768;9.600;2023-05-10T11:36:24;97038.69;;;13.50;82.08
80624;BME280;69981;44.768;9.600;2023-05-10T11:38:50;97041.16;;;13.51;79.21
80624;BME280;69981;44.768;9.600;2023-05-10T11:41:18;97038.75;;;13.26;77.63
80624;BME280;69981;44.768;9.600;2023-05-10T11:43:46;97048.03;;;13.42;75.41
80624;BME280;69981;44.768;9.600;2023-05-10T11:46:13;97046.88;;;13.38;76.44
80624;BME280;69981;44.768;9.600;2023-05-10T11:48:39;97045.13;;;12.97;76.20
80624;BME280;69981;44.768;9.600;2023-05-10T11:51:07;97060.31;;;13.10;76.16
80624;BME280;69981;44.768;9.600;2023-05-10T11:53:33;97066.56;;;13.10;76.80
80624;BME280;69981;44.768;9.600;2023-05-10T11:56:06;97070.25;;;12.92;77.57
80624;BME280;69981;44.768;9.600;2023-05-10T11:58:33;97069.31;;;12.75;77.68
80624;BME280;69981;44.768;9.600;2023-05-10T12:00:59;97072.75;;;12.82;76.71
80624;BME280;69981;44.768;9.600;2023-05-10T12:03:29;97074.25;;;12.67;78.22
80624;BME280;69981;44.768;9.600;2023-05-10T12:05:55;97072.50;;;12.61;78.71
80624;BME280;69981;44.768;9.600;2023-05-10T12:08:23;97080.56;;;12.14;80.34
80624;BME280;69981;44.768;9.600;2023-05-10T12:10:49;97093.22;;;11.90;80.65
80624;BME280;69981;44.768;9.600;2023-05-10T12:13:15;97098.47;;;11.67;80.53
80624;BME280;69981;44.768;9.600;2023-05-10T12:15:41;97091.94;;;11.74;81.16
80624;BME280;69981;44.768;9.600;2023-05-10T12:18:11;97097.19;;;11.69;80.17
80624;BME280;69981;44.768;9.600;2023-05-10T12:20:37;97083.84;;;11.56;82.83
80624;BME280;69981;44.768;9.600;2023-05-10T12:23:04;97083.97;;;11.80;81.72
80624;BME280;69981;44.768;9.600;2023-05-10T12:25:34;97083.63;;;12.18;81.21
80624;BME280;69981;44.768;9.600;2023-05-10T12:28:03;97081.03;;;12.23;79.19
80624;BME280;69981;44.768;9.600;2023-05-10T12:30:31;97066.00;;;12.73;80.68
80624;BME280;69981;44.768;9.600;2023-05-10T12:33:11;97071.81;;;12.88;74.51
80624;BME280;69981;44.768;9.600;2023-05-10T12:35:51;97058.66;;;13.09;77.35
80624;BME280;69981;44.768;9.600;2023-05-10T12:38:33;97055.97;;;13.60;76.95
80624;BME280;69981;44.768;9.600;2023-05-10T12:41:00;97059.16;;;13.69;79.97
80624;BME280;69981;44.768;9.600;2023-05-10T12:43:26;97061.13;;;13.45;74.42
80624;BME280;69981;44.768;9.600;2023-05-10T12:45:52;97055.09;;;13.43;78.59
80624;BME280;69981;44.768;9.600;2023-05-10T12:48:18;97050.56;;;13.60;77.90
80624;BME280;69981;44.768;9.600;2023-05-10T12:50:43;97056.16;;;13.70;76.64
80624;BME280;69981;44.768;9.600;2023-05-10T12:53:09;97055.84;;;13.67;77.13
80624;BME280;69981;44.768;9.600;2023-05-10T12:55:34;97062.09;;;13.67;75.97
80624;BME280;69981;44.768;9.600;2023-05-10T12:58:00;97064.28;;;13.82;76.15
80624;BME280;69981;44.768;9.600;2023-05-10T13:00:26;97055.16;;;13.88;73.80
80624;BME280;69981;44.768;9.600;2023-05-10T13:02:51;97062.66;;;13.41;74.82
80624;BME280;69981;44.768;9.600;2023-05-10T13:05:17;97065.19;;;13.19;76.08
80624;BME280;69981;44.768;9.600;2023-05-10T13:07:42;97076.41;;;12.76;77.00
80624;BME280;69981;44.768;9.600;2023-05-10T13:10:09;97071.16;;;13.10;79.17
80624;BME280;69981;44.768;9.600;2023-05-10T13:12:35;97073.91;;;12.98;77.14
80624;BME280;69981;44.768;9.600;2023-05-10T13:15:01;97068.13;;;13.18;77.99
80624;BME280;69981;44.768;9.600;2023-05-10T13:17:27;97077.66;;;13.09;77.86
80624;BME280;69981;44.768;9.600;2023-05-10T13:19:53;97070.25;;;12.92;76.42
80624;BME280;69981;44.768;9.600;2023-05-10T13:22:18;97075.34;;;12.89;76.19
80624;BME280;69981;44.768;9.600;2023-05-10T13:24:44;97076.84;;;12.96;77.98
80624;BME280;69981;44.768;9.600;2023-05-10T13:27:09;97077.69;;;12.74;77.00
80624;BME280;69981;44.768;9.600;2023-05-10T13:29:35;97078.75;;;12.61;79.65
80624;BME280;69981;44.768;9.600;2023-05-10T13:32:00;97078.13;;;12.59;78.10
80624;BME280;69981;44.768;9.600;2023-05-10T13:34:26;97084.13;;;12.38;77.61
80624;BME280;69981;44.768;9.600;2023-05-10T13:36:52;97078.66;;;12.03;77.96
80624;BME280;69981;44.768;9.600;2023-05-10T13:39:20;97074.78;;;12.22;80.16
80624;BME280;69981;44.768;9.600;2023-05-10T13:41:46;97074.34;;;12.25;80.65
80624;BME280;69981;44.768;9.600;2023-05-10T13:44:12;97072.44;;;12.14;79.59
80624;BME280;69981;44.768;9.600;2023-05-10T13:46:39;97067.72;;;12.09;78.71